createdAt,value
2022-11-06T00:01:51.084Z,11.45
2022-11-06T00:04:18.310Z,11.30
2022-11-06T00:06:48.213Z,11.95
2022-11-06T00:09:19.646Z,11.95
2022-11-06T00:11:47.696Z,12.80
2022-11-06T00:14:15.224Z,11.73
2022-11-06T00:16:42.866Z,11.60
2022-11-06T00:19:10.275Z,11.20
2022-11-06T00:21:37.517Z,12.35
2022-11-06T00:24:06.288Z,11.15
2022-11-06T00:26:33.961Z,11.35
2022-11-06T00:29:01.653Z,11.25
2022-11-06T00:31:30.469Z,11.13
2022-11-06T00:33:58.557Z,11.15
2022-11-06T00:36:26.363Z,11.30
2022-11-06T00:38:54.617Z,11.93
2022-11-06T00:41:22.125Z,11.15
2022-11-06T00:43:50.631Z,10.70
2022-11-06T00:46:17.924Z,10.57
2022-11-06T00:48:45.309Z,10.75
2022-11-06T00:51:14.612Z,10.32
2022-11-06T00:53:42.115Z,10.52
2022-11-06T00:56:10.593Z,10.48
2022-11-06T00:58:38.135Z,10.35
2022-11-06T01:01:16.130Z,9.60
2022-11-06T01:03:44.962Z,10.25
2022-11-06T01:06:17.332Z,10.45
2022-11-06T01:08:44.656Z,9.45
2022-11-06T01:11:22.601Z,10.00
2022-11-06T01:13:51.642Z,10.10
2022-11-06T01:16:19.318Z,9.93
2022-11-06T01:18:46.755Z,9.55
2022-11-06T01:21:15.921Z,10.00
2022-11-06T01:23:43.564Z,10.05
2022-11-06T01:26:11.868Z,9.27
2022-11-06T01:28:39.383Z,10.13
2022-11-06T01:31:11.591Z,10.02
2022-11-06T01:33:39.009Z,10.05
2022-11-06T01:36:08.339Z,8.77
2022-11-06T01:38:35.459Z,9.93
2022-11-06T01:41:02.665Z,8.88
2022-11-06T01:44:09.705Z,8.70
2022-11-06T01:46:37.023Z,9.52
2022-11-06T01:49:05.638Z,9.95
2022-11-06T01:51:34.419Z,8.82
2022-11-06T01:54:03.307Z,10.10
2022-11-06T01:56:30.459Z,9.88
2022-11-06T01:58:57.605Z,8.98
2022-11-06T02:01:25.070Z,9.38
2022-11-06T02:04:11.967Z,9.25
2022-11-06T02:06:39.112Z,9.35
2022-11-06T02:09:11.382Z,9.10
2022-11-06T02:11:40.397Z,8.88
2022-11-06T02:14:26.165Z,8.80
2022-11-06T02:17:00.697Z,8.63
2022-11-06T02:19:49.821Z,9.15
2022-11-06T02:22:28.968Z,9.48
2022-11-06T02:25:27.668Z,9.73
2022-11-06T02:28:03.137Z,9.48
2022-11-06T02:30:34.795Z,9.82
2022-11-06T02:33:05.485Z,9.32
2022-11-06T02:35:51.041Z,10.02
2022-11-06T02:38:27.236Z,9.32
2022-11-06T02:40:56.595Z,9.25
2022-11-06T02:43:44.293Z,9.13
2022-11-06T02:46:17.588Z,9.27
2022-11-06T02:48:47.460Z,8.87
2022-11-06T02:51:16.047Z,7.97
2022-11-06T02:53:43.512Z,8.55
2022-11-06T02:56:12.418Z,8.40
2022-11-06T02:58:49.420Z,8.70
2022-11-06T03:01:45.134Z,7.53
2022-11-06T03:04:18.877Z,7.00
2022-11-06T03:06:49.408Z,7.68
2022-11-06T03:09:19.711Z,7.95
2022-11-06T03:11:54.272Z,7.60
2022-11-06T03:14:32.449Z,7.45
2022-11-06T03:17:00.989Z,7.43
2022-11-06T03:19:30.241Z,7.43
2022-11-06T03:22:03.357Z,7.47
2022-11-06T03:24:42.659Z,7.32
2022-11-06T03:27:16.864Z,7.55
2022-11-06T03:32:20.071Z,6.43
2022-11-06T03:34:56.049Z,7.22
2022-11-06T03:37:29.410Z,7.60
2022-11-06T03:39:57.738Z,7.30
2022-11-06T03:42:28.100Z,7.20
2022-11-06T03:45:00.894Z,7.00
2022-11-06T03:47:38.452Z,7.20
2022-11-06T03:50:44.609Z,7.20
2022-11-06T03:53:21.120Z,7.55
2022-11-06T03:56:00.665Z,6.65
2022-11-06T03:58:30.390Z,7.07
2022-11-06T04:00:57.599Z,7.32
2022-11-06T04:03:27.246Z,7.18
2022-11-06T04:06:18.977Z,7.60
2022-11-06T04:09:05.544Z,6.82
2022-11-06T04:11:52.607Z,7.55
2022-11-06T04:14:19.782Z,6.68
2022-11-06T04:16:49.176Z,7.28
2022-11-06T04:19:17.750Z,7.00
2022-11-06T04:22:04.873Z,7.38
2022-11-06T04:24:57.338Z,7.10
2022-11-06T04:27:48.355Z,6.70
2022-11-06T04:30:16.044Z,6.72
2022-11-06T04:32:46.215Z,7.28
2022-11-06T04:35:34.976Z,7.22
2022-11-06T04:38:13.088Z,6.50
2022-11-06T04:41:05.373Z,6.90
2022-11-06T04:43:55.340Z,6.72
2022-11-06T04:46:25.531Z,7.18
2022-11-06T04:48:52.864Z,6.85
2022-11-06T04:51:22.114Z,6.85
2022-11-06T04:53:49.686Z,6.90
2022-11-06T04:56:29.263Z,6.25
2022-11-06T04:58:57.170Z,6.60
2022-11-06T05:01:24.639Z,7.15
2022-11-06T05:03:52.041Z,7.15
2022-11-06T05:06:19.417Z,7.15
2022-11-06T05:08:46.550Z,6.90
2022-11-06T05:11:13.792Z,6.72
2022-11-06T05:13:40.944Z,6.75
2022-11-06T05:16:08.382Z,6.68
2022-11-06T05:18:35.630Z,7.10
2022-11-06T05:21:21.783Z,7.10
2022-11-06T05:23:49.028Z,6.97
2022-11-06T05:26:16.412Z,6.90
2022-11-06T05:28:43.756Z,7.00
2022-11-06T05:31:10.955Z,7.30
2022-11-06T05:33:38.214Z,7.60
2022-11-06T05:36:06.307Z,6.93
2022-11-06T05:38:33.697Z,7.38
2022-11-06T05:41:00.980Z,6.75
2022-11-06T05:43:28.334Z,7.18
2022-11-06T05:45:55.677Z,6.95
2022-11-06T05:48:23.975Z,7.03
2022-11-06T05:50:51.168Z,7.20
2022-11-06T05:53:18.287Z,6.57
2022-11-06T05:55:47.044Z,6.53
2022-11-06T05:58:14.719Z,6.65
2022-11-06T06:00:42.180Z,6.72
2022-11-06T06:03:09.797Z,6.72
2022-11-06T06:05:37.004Z,6.43
2022-11-06T06:08:05.171Z,6.00
2022-11-06T06:10:32.351Z,6.85
2022-11-06T06:12:59.676Z,7.25
2022-11-06T06:15:27.013Z,7.10
2022-11-06T06:17:54.409Z,7.25
2022-11-06T06:20:21.739Z,7.20
2022-11-06T06:22:56.039Z,7.03
2022-11-06T06:25:23.444Z,7.28
2022-11-06T06:27:51.143Z,7.03
2022-11-06T06:30:18.538Z,6.68
2022-11-06T06:32:45.885Z,7.55
2022-11-06T06:35:13.282Z,7.13
2022-11-06T06:37:40.635Z,8.05
2022-11-06T06:40:08.297Z,7.47
2022-11-06T06:42:35.425Z,8.02
2022-11-06T06:45:02.673Z,7.50
2022-11-06T06:47:29.806Z,7.65
2022-11-06T06:49:57.148Z,7.07
2022-11-06T06:52:24.311Z,6.95
2022-11-06T06:54:51.449Z,7.07
2022-11-06T06:57:18.838Z,7.60
2022-11-06T06:59:46.169Z,7.57
2022-11-06T07:02:13.407Z,7.97
2022-11-06T07:04:40.829Z,7.93
2022-11-06T07:07:07.968Z,7.80
2022-11-06T07:09:35.307Z,8.07
2022-11-06T07:12:02.775Z,8.48
2022-11-06T07:14:29.945Z,8.88
2022-11-06T07:16:57.317Z,8.38
2022-11-06T07:19:24.448Z,7.80
2022-11-06T07:21:52.607Z,7.95
2022-11-06T07:24:21.180Z,8.18
2022-11-06T07:26:48.352Z,8.90
2022-11-06T07:29:15.719Z,8.85
2022-11-06T07:31:43.049Z,9.00
2022-11-06T07:34:10.277Z,9.38
2022-11-06T07:36:37.625Z,9.63
2022-11-06T07:39:04.781Z,10.50
2022-11-06T07:41:32.096Z,10.20
2022-11-06T07:43:59.442Z,10.45
2022-11-06T07:46:26.598Z,11.00
2022-11-06T07:48:54.623Z,10.23
2022-11-06T07:51:21.807Z,12.52
2022-11-06T07:53:48.990Z,12.88
2022-11-06T07:56:16.346Z,12.90
2022-11-06T07:58:43.610Z,14.50
2022-11-06T08:01:18.682Z,13.88
2022-11-06T08:03:46.399Z,13.02
2022-11-06T08:06:13.577Z,13.57
2022-11-06T08:08:40.763Z,14.02
2022-11-06T08:11:09.536Z,13.50
2022-11-06T08:13:37.084Z,13.55
2022-11-06T08:16:13.915Z,12.63
2022-11-06T08:18:41.332Z,12.77
2022-11-06T08:21:08.901Z,11.75
2022-11-06T08:23:36.136Z,11.52
2022-11-06T08:26:04.314Z,11.77
2022-11-06T08:28:31.482Z,10.70
2022-11-06T08:30:58.619Z,11.10
2022-11-06T08:33:25.789Z,11.30
2022-11-06T08:35:53.199Z,11.38
2022-11-06T08:38:20.372Z,10.93
2022-11-06T08:40:53.166Z,11.57
2022-11-06T08:43:20.890Z,11.13
2022-11-06T08:45:48.242Z,10.18
2022-11-06T08:48:15.412Z,10.95
2022-11-06T08:50:42.651Z,10.95
2022-11-06T08:53:10.143Z,10.55
2022-11-06T08:55:38.538Z,10.93
2022-11-06T08:58:06.872Z,9.88
2022-11-06T09:00:34.340Z,9.32
2022-11-06T09:03:09.958Z,9.82
2022-11-06T09:05:40.097Z,9.82
2022-11-06T09:08:07.372Z,9.27
2022-11-06T09:10:34.837Z,10.00
2022-11-06T09:13:02.223Z,9.98
2022-11-06T09:15:29.405Z,8.80
2022-11-06T09:17:56.789Z,9.50
2022-11-06T09:20:24.681Z,9.25
2022-11-06T09:22:52.279Z,9.20
2022-11-06T09:25:19.799Z,9.52
2022-11-06T09:27:48.227Z,10.55
2022-11-06T09:30:17.013Z,9.77
2022-11-06T09:32:48.156Z,9.68
2022-11-06T09:35:15.408Z,9.30
2022-11-06T09:37:42.779Z,9.50
2022-11-06T09:40:24.486Z,8.48
2022-11-06T09:43:13.895Z,7.93
2022-11-06T09:45:41.463Z,7.75
2022-11-06T09:48:19.836Z,7.95
2022-11-06T09:50:59.890Z,7.40
2022-11-06T09:53:39.575Z,7.22
2022-11-06T09:56:06.907Z,7.60
2022-11-06T09:58:38.642Z,7.60
2022-11-06T10:01:26.004Z,7.07
2022-11-06T10:04:00.656Z,6.55
2022-11-06T10:06:28.319Z,6.55
2022-11-06T10:09:01.848Z,6.60
2022-11-06T10:11:55.029Z,6.63
2022-11-06T10:14:43.845Z,6.55
2022-11-06T10:17:37.788Z,6.15
2022-11-06T10:20:12.517Z,6.38
2022-11-06T10:22:40.818Z,6.47
2022-11-06T10:25:22.044Z,6.68
2022-11-06T10:28:11.344Z,5.97
2022-11-06T10:30:41.503Z,6.00
2022-11-06T10:33:33.113Z,6.40
2022-11-06T10:36:06.608Z,6.85
2022-11-06T10:38:34.891Z,6.33
2022-11-06T10:41:02.060Z,5.97
2022-11-06T10:43:38.484Z,5.88
2022-11-06T10:46:31.665Z,5.38
2022-11-06T10:49:00.781Z,5.95
2022-11-06T10:51:46.172Z,5.70
2022-11-06T10:54:58.052Z,6.35
2022-11-06T10:57:28.147Z,5.68
2022-11-06T10:59:55.337Z,6.30
2022-11-06T11:02:26.807Z,6.40
2022-11-06T11:04:57.724Z,6.40
2022-11-06T11:07:27.648Z,6.53
2022-11-06T11:09:54.779Z,6.18
2022-11-06T11:12:29.406Z,6.22
2022-11-06T11:15:16.304Z,6.38
2022-11-06T11:17:43.470Z,6.60
2022-11-06T11:20:33.297Z,6.07
2022-11-06T11:23:20.049Z,6.40
2022-11-06T11:25:54.648Z,5.85
2022-11-06T11:28:30.003Z,5.57
2022-11-06T11:31:07.594Z,4.78
2022-11-06T11:33:34.756Z,4.60
2022-11-06T11:36:03.213Z,4.70
2022-11-06T11:38:30.616Z,3.88
2022-11-06T11:41:28.185Z,4.35
2022-11-06T11:44:04.478Z,4.50
2022-11-06T11:46:32.168Z,4.05
2022-11-06T11:48:59.869Z,3.20
2022-11-06T11:51:27.090Z,3.25
2022-11-06T11:53:56.518Z,3.17
2022-11-06T11:56:49.717Z,3.40
2022-11-06T11:59:15.377Z,2.90
2022-11-06T12:01:42.594Z,3.05
2022-11-06T12:04:24.307Z,3.35
2022-11-06T12:07:02.290Z,3.08
2022-11-06T12:09:33.006Z,2.92
2022-11-06T12:12:01.046Z,3.30
2022-11-06T12:14:37.135Z,3.60
2022-11-06T12:17:11.324Z,3.60
2022-11-06T12:19:39.041Z,3.28
2022-11-06T12:22:12.712Z,3.60
2022-11-06T12:24:47.511Z,3.15
2022-11-06T12:27:17.850Z,3.30
2022-11-06T12:30:07.518Z,3.03
2022-11-06T12:32:46.475Z,2.85
2022-11-06T12:35:24.674Z,2.83
2022-11-06T12:38:14.226Z,2.70
2022-11-06T12:40:44.009Z,2.50
2022-11-06T12:43:20.225Z,3.10
2022-11-06T12:46:06.013Z,3.50
2022-11-06T12:48:51.701Z,2.85
2022-11-06T12:51:41.842Z,3.10
2022-11-06T12:54:24.742Z,2.90
2022-11-06T12:57:29.482Z,2.92
2022-11-06T13:00:00.721Z,3.03
2022-11-06T13:02:45.435Z,2.80
2022-11-06T13:05:31.819Z,2.90
2022-11-06T13:08:18.142Z,2.80
2022-11-06T13:11:23.429Z,3.28
2022-11-06T13:14:21.938Z,3.08
2022-11-06T13:17:02.706Z,2.97
2022-11-06T13:19:48.316Z,3.10
2022-11-06T13:22:24.208Z,3.30
2022-11-06T13:25:03.186Z,3.20
2022-11-06T13:27:47.624Z,3.35
2022-11-06T13:30:21.784Z,3.30
2022-11-06T13:33:02.731Z,3.17
2022-11-06T13:35:29.964Z,3.35
2022-11-06T13:37:57.307Z,3.17
2022-11-06T13:40:37.180Z,3.30
2022-11-06T13:43:10.487Z,3.40
2022-11-06T13:46:18.536Z,2.93
2022-11-06T13:49:07.123Z,3.03
2022-11-06T13:51:53.175Z,3.20
2022-11-06T13:54:44.352Z,3.30
2022-11-06T13:57:36.840Z,3.53
2022-11-06T14:00:20.399Z,2.95
2022-11-06T14:03:15.871Z,2.80
2022-11-06T14:05:52.899Z,3.17
2022-11-06T14:08:28.106Z,2.60
2022-11-06T14:11:06.866Z,2.33
2022-11-06T14:13:34.937Z,2.40
2022-11-06T14:16:17.989Z,2.53
2022-11-06T14:18:54.041Z,3.20
2022-11-06T14:21:36.383Z,3.30
2022-11-06T14:24:19.042Z,3.78
2022-11-06T14:26:47.364Z,3.92
2022-11-06T14:29:27.059Z,3.97
2022-11-06T14:32:18.357Z,3.67
2022-11-06T14:34:45.497Z,4.07
2022-11-06T14:37:18.727Z,3.67
2022-11-06T14:39:52.100Z,3.85
2022-11-06T14:42:38.250Z,3.77
2022-11-06T14:45:09.620Z,3.45
2022-11-06T14:47:46.215Z,3.22
2022-11-06T14:50:19.779Z,3.20
2022-11-06T14:53:13.769Z,3.60
2022-11-06T14:55:42.745Z,3.38
2022-11-06T14:58:19.228Z,3.45
2022-11-06T15:00:54.552Z,3.60
2022-11-06T15:03:31.199Z,4.05
2022-11-06T15:06:01.447Z,3.58
2022-11-06T15:08:47.183Z,3.50
2022-11-06T15:11:29.846Z,3.75
2022-11-06T15:14:04.599Z,3.88
2022-11-06T15:16:55.560Z,3.50
2022-11-06T15:19:43.649Z,3.78
2022-11-06T15:22:32.705Z,3.80
2022-11-06T15:25:05.985Z,3.70
2022-11-06T15:27:43.299Z,3.95
2022-11-06T15:30:15.121Z,4.03
2022-11-06T15:32:42.563Z,4.18
2022-11-06T15:35:22.668Z,4.05
2022-11-06T15:38:12.918Z,4.07
2022-11-06T15:40:40.132Z,4.03
2022-11-06T15:43:14.644Z,3.58
2022-11-06T15:45:42.008Z,3.58
2022-11-06T15:48:20.993Z,3.63
2022-11-06T15:50:48.605Z,3.55
2022-11-06T15:53:16.302Z,3.65
2022-11-06T15:55:55.757Z,3.35
2022-11-06T15:58:34.025Z,3.80
2022-11-06T16:01:01.953Z,4.30
2022-11-06T16:03:31.227Z,3.88
2022-11-06T16:06:01.033Z,3.83
2022-11-06T16:08:29.258Z,3.35
2022-11-06T16:10:56.732Z,3.65
2022-11-06T16:13:24.631Z,3.80
2022-11-06T16:15:55.977Z,3.80
2022-11-06T16:18:40.239Z,3.78
2022-11-06T16:21:20.968Z,3.80
2022-11-06T16:23:56.510Z,4.10
2022-11-06T16:26:37.185Z,4.10
2022-11-06T16:29:12.569Z,3.83
2022-11-06T16:31:39.933Z,4.47
2022-11-06T16:34:18.833Z,4.28
2022-11-06T16:36:50.219Z,4.57
2022-11-06T16:39:17.332Z,4.35
2022-11-06T16:42:04.673Z,4.53
2022-11-06T16:44:40.907Z,4.03
2022-11-06T16:47:22.359Z,3.70
2022-11-06T16:49:53.975Z,4.43
2022-11-06T16:52:23.000Z,4.60
2022-11-06T16:54:52.054Z,4.55
2022-11-06T16:57:27.092Z,4.22
2022-11-06T16:59:58.760Z,4.60
2022-11-06T17:02:28.411Z,4.50
2022-11-06T17:05:11.897Z,4.57
2022-11-06T17:07:39.497Z,4.88
2022-11-06T17:10:25.915Z,4.80
2022-11-06T17:12:53.168Z,5.50
2022-11-06T17:15:20.507Z,5.00
2022-11-06T17:17:49.311Z,5.07
2022-11-06T17:20:18.139Z,4.47
2022-11-06T17:22:46.111Z,5.10
2022-11-06T17:25:13.364Z,4.82
2022-11-06T17:27:40.736Z,4.85
2022-11-06T17:30:13.823Z,4.97
2022-11-06T17:32:41.268Z,4.80
2022-11-06T17:35:09.728Z,4.22
2022-11-06T17:37:37.091Z,4.72
2022-11-06T17:40:05.103Z,4.50
2022-11-06T17:42:32.250Z,5.32
2022-11-06T17:44:59.357Z,4.93
2022-11-06T17:47:27.008Z,4.95
2022-11-06T17:49:54.172Z,4.82
2022-11-06T17:52:21.420Z,4.88
2022-11-06T17:54:48.782Z,5.32
2022-11-06T17:57:22.811Z,4.80
2022-11-06T17:59:51.136Z,5.05
2022-11-06T18:02:30.001Z,5.30
2022-11-06T18:05:08.492Z,5.30
2022-11-06T18:07:35.733Z,5.07
2022-11-06T18:10:02.953Z,5.15
2022-11-06T18:12:30.254Z,5.22
2022-11-06T18:14:57.626Z,5.18
2022-11-06T18:17:24.792Z,5.47
2022-11-06T18:19:52.079Z,5.22
2022-11-06T18:22:19.211Z,5.40
2022-11-06T18:24:46.408Z,6.10
2022-11-06T18:27:13.533Z,6.68
2022-11-06T18:29:40.648Z,6.68
2022-11-06T18:32:07.864Z,7.05
2022-11-06T18:34:35.027Z,7.10
2022-11-06T18:37:02.245Z,7.95
2022-11-06T18:39:29.603Z,7.30
2022-11-06T18:41:58.851Z,8.05
2022-11-06T18:44:26.057Z,7.65
2022-11-06T18:46:53.180Z,8.13
2022-11-06T18:49:20.346Z,7.35
2022-11-06T18:51:47.608Z,7.22
2022-11-06T18:54:14.828Z,7.25
2022-11-06T18:56:41.950Z,7.47
2022-11-06T18:59:13.212Z,7.15
2022-11-06T19:01:40.817Z,7.65
2022-11-06T19:04:10.429Z,7.65
2022-11-06T19:06:40.324Z,7.60
2022-11-06T19:09:08.210Z,7.47
2022-11-06T19:11:35.422Z,7.20
2022-11-06T19:14:02.550Z,6.93
2022-11-06T19:16:29.755Z,6.00
2022-11-06T19:21:29.769Z,5.70
2022-11-06T19:24:05.366Z,6.28
2022-11-06T19:26:34.719Z,6.03
2022-11-06T19:29:02.088Z,5.80
2022-11-06T19:31:30.114Z,5.97
2022-11-06T19:33:58.048Z,5.78
2022-11-06T19:36:25.605Z,5.78
2022-11-06T19:38:53.281Z,5.70
2022-11-06T19:41:20.495Z,5.85
2022-11-06T19:43:47.638Z,5.50
2022-11-06T19:46:23.836Z,5.95
2022-11-06T19:48:52.121Z,5.18
2022-11-06T19:51:19.403Z,4.97
2022-11-06T19:53:46.588Z,5.25
2022-11-06T19:56:16.417Z,4.72
2022-11-06T19:58:43.731Z,5.32
2022-11-06T20:01:13.116Z,5.30
2022-11-06T20:03:40.588Z,5.38
2022-11-06T20:06:08.340Z,5.35
2022-11-06T20:08:36.889Z,5.00
2022-11-06T20:11:14.842Z,4.85
2022-11-06T20:13:42.236Z,5.20
2022-11-06T20:16:13.880Z,5.18
2022-11-06T20:18:41.122Z,5.38
2022-11-06T20:21:09.853Z,5.55
2022-11-06T20:23:37.113Z,5.47
2022-11-06T20:26:04.744Z,5.35
2022-11-06T20:28:32.581Z,5.80
2022-11-06T20:30:59.733Z,5.50
2022-11-06T20:33:26.883Z,5.60
2022-11-06T20:35:54.006Z,5.80
2022-11-06T20:38:21.172Z,5.90
2022-11-06T20:40:48.385Z,6.22
2022-11-06T20:43:16.231Z,6.28
2022-11-06T20:45:44.048Z,6.45
2022-11-06T20:48:11.223Z,6.97
2022-11-06T20:50:38.396Z,6.45
2022-11-06T20:53:05.527Z,6.60
2022-11-06T20:55:32.687Z,6.40
2022-11-06T20:57:59.885Z,6.95
2022-11-06T21:00:27.137Z,6.47
2022-11-06T21:02:58.934Z,6.60
2022-11-06T21:07:55.627Z,6.13
2022-11-06T21:10:23.075Z,6.18
2022-11-06T21:12:50.228Z,6.20
2022-11-06T21:15:17.489Z,6.28
2022-11-06T21:17:44.733Z,5.90
2022-11-06T21:20:11.948Z,6.30
2022-11-06T21:22:39.113Z,5.97
2022-11-06T21:25:06.762Z,5.75
2022-11-06T21:27:33.936Z,5.80
2022-11-06T21:30:01.097Z,5.35
2022-11-06T21:32:28.250Z,4.78
2022-11-06T21:34:55.395Z,4.20
2022-11-06T21:37:32.826Z,3.20
2022-11-06T21:40:00.622Z,3.00
2022-11-06T21:42:27.997Z,2.60
2022-11-06T21:44:55.206Z,2.50
2022-11-06T21:47:22.342Z,2.30
2022-11-06T21:49:53.892Z,2.35
2022-11-06T21:52:40.056Z,2.05
2022-11-06T21:55:26.708Z,2.10
2022-11-06T21:57:54.006Z,1.83
2022-11-06T22:00:21.746Z,2.08
2022-11-06T22:02:50.931Z,1.83
2022-11-06T22:05:18.253Z,1.95
2022-11-06T22:07:45.418Z,1.98
2022-11-06T22:10:12.828Z,1.80
2022-11-06T22:12:39.996Z,1.40
2022-11-06T22:15:07.866Z,1.50
2022-11-06T22:17:35.033Z,1.70
2022-11-06T22:20:02.225Z,1.60
2022-11-06T22:22:29.999Z,1.48
2022-11-06T22:24:57.345Z,1.30
2022-11-06T22:27:24.572Z,1.35
2022-11-06T22:29:51.750Z,1.30
2022-11-06T22:32:18.943Z,1.30
2022-11-06T22:34:46.107Z,1.02
2022-11-06T22:37:13.301Z,1.30
2022-11-06T22:39:40.507Z,1.35
2022-11-06T22:42:07.740Z,1.27
2022-11-06T22:44:35.387Z,1.23
2022-11-06T22:47:02.941Z,1.17
2022-11-06T22:49:30.388Z,1.25
2022-11-06T22:51:57.592Z,1.17
2022-11-06T22:54:24.777Z,1.33
2022-11-06T22:56:51.988Z,1.30
2022-11-06T22:59:21.163Z,1.20
2022-11-06T23:01:48.423Z,1.25
2022-11-06T23:04:15.960Z,1.10
2022-11-06T23:06:44.245Z,1.00
2022-11-06T23:09:11.635Z,1.50
2022-11-06T23:11:38.836Z,1.23
2022-11-06T23:14:08.900Z,1.20
2022-11-06T23:16:55.516Z,0.95
2022-11-06T23:19:22.961Z,0.93
2022-11-06T23:21:50.185Z,1.00
2022-11-06T23:24:17.319Z,1.05
2022-11-06T23:26:44.863Z,1.02
2022-11-06T23:29:12.099Z,0.80
2022-11-06T23:31:41.002Z,1.08
2022-11-06T23:34:08.312Z,1.00
2022-11-06T23:36:35.728Z,1.10
2022-11-06T23:39:02.993Z,0.90
2022-11-06T23:41:46.355Z,1.10
2022-11-06T23:44:33.110Z,1.10
2022-11-06T23:47:00.389Z,0.98
2022-11-06T23:49:27.688Z,1.10
2022-11-06T23:51:54.886Z,1.05
2022-11-06T23:54:22.104Z,1.10
2022-11-06T23:56:49.482Z,1.35
2022-11-06T23:59:16.712Z,0.95
